createdAt,value
2024-01-15T00:00:18.040Z,52.92
2024-01-15T00:02:44.861Z,58.53
2024-01-15T00:05:11.617Z,47.72
2024-01-15T00:07:38.486Z,54.30
2024-01-15T00:10:05.740Z,55.40
2024-01-15T00:12:33.322Z,49.78
2024-01-15T00:15:00.223Z,50.47
2024-01-15T00:17:26.947Z,48.75
2024-01-15T00:19:53.950Z,58.38
2024-01-15T00:22:20.920Z,52.35
2024-01-15T00:24:47.853Z,53.00
2024-01-15T00:27:14.748Z,52.15
2024-01-15T00:29:41.539Z,57.33
2024-01-15T00:32:08.256Z,58.15
2024-01-15T00:34:35.171Z,50.33
2024-01-15T00:37:01.886Z,54.92
2024-01-15T00:39:28.700Z,53.65
2024-01-15T00:41:55.323Z,61.60
2024-01-15T00:44:21.991Z,56.85
2024-01-15T00:46:48.773Z,53.13
2024-01-15T00:49:15.947Z,57.00
2024-01-15T00:51:42.855Z,53.33
2024-01-15T00:54:09.828Z,52.33
2024-01-15T00:56:37.899Z,46.83
2024-01-15T00:59:04.680Z,57.03
2024-01-15T01:01:31.506Z,50.25
2024-01-15T01:03:58.602Z,47.63
2024-01-15T01:06:26.102Z,48.47
2024-01-15T01:08:52.898Z,45.75
2024-01-15T01:11:19.631Z,45.47
2024-01-15T01:13:46.341Z,46.90
2024-01-15T01:16:13.071Z,44.40
2024-01-15T01:18:40.248Z,45.25
2024-01-15T01:21:07.156Z,46.13
2024-01-15T01:23:33.936Z,40.47
2024-01-15T01:26:00.721Z,39.58
2024-01-15T01:28:27.501Z,55.80
2024-01-15T01:30:54.314Z,35.95
2024-01-15T01:33:21.624Z,36.80
2024-01-15T01:35:48.693Z,43.70
2024-01-15T01:38:15.441Z,40.10
2024-01-15T01:40:42.082Z,45.20
2024-01-15T01:43:10.424Z,44.65
2024-01-15T01:45:37.450Z,35.05
2024-01-15T01:48:05.579Z,31.98
2024-01-15T01:50:33.004Z,32.80
2024-01-15T01:53:00.691Z,36.08
2024-01-15T01:55:29.053Z,30.77
2024-01-15T01:57:56.658Z,35.83
2024-01-15T02:00:23.614Z,33.35
2024-01-15T02:02:50.866Z,32.60
2024-01-15T02:05:20.469Z,40.28
2024-01-15T02:07:47.281Z,37.65
2024-01-15T02:10:14.887Z,27.90
2024-01-15T02:12:41.697Z,33.95
2024-01-15T02:15:08.797Z,32.67
2024-01-15T02:17:35.648Z,34.38
2024-01-15T02:20:02.783Z,27.48
2024-01-15T02:22:29.584Z,31.65
2024-01-15T02:24:56.301Z,26.52
2024-01-15T02:27:22.998Z,26.45
2024-01-15T02:29:49.978Z,24.70
2024-01-15T02:32:16.755Z,27.67
2024-01-15T02:34:43.641Z,22.73
2024-01-15T02:37:10.457Z,31.02
2024-01-15T02:39:37.150Z,23.42
2024-01-15T02:42:03.927Z,24.92
2024-01-15T02:44:30.591Z,24.58
2024-01-15T02:46:57.238Z,27.83
2024-01-15T02:49:23.926Z,21.58
2024-01-15T02:51:50.803Z,21.60
2024-01-15T02:54:17.596Z,20.58
2024-01-15T02:56:44.419Z,19.17
2024-01-15T02:59:11.087Z,24.98
2024-01-15T03:01:38.241Z,21.40
2024-01-15T03:04:05.094Z,21.50
2024-01-15T03:06:32.010Z,22.58
2024-01-15T03:08:58.723Z,20.55
2024-01-15T03:11:25.871Z,24.08
2024-01-15T03:13:52.573Z,18.73
2024-01-15T03:16:21.035Z,19.48
2024-01-15T03:18:47.822Z,17.38
2024-01-15T03:21:14.695Z,19.65
2024-01-15T03:23:41.330Z,16.35
2024-01-15T03:26:08.081Z,15.00
2024-01-15T03:28:34.871Z,16.98
2024-01-15T03:31:01.770Z,17.73
2024-01-15T03:33:28.590Z,16.90
2024-01-15T03:35:55.506Z,14.82
2024-01-15T03:38:22.164Z,19.15
2024-01-15T03:40:49.023Z,19.55
2024-01-15T03:43:15.786Z,19.45
2024-01-15T03:45:42.616Z,18.02
2024-01-15T03:48:09.489Z,18.48
2024-01-15T03:50:36.613Z,15.93
2024-01-15T03:53:03.438Z,17.20
2024-01-15T03:55:30.250Z,18.27
2024-01-15T03:57:57.189Z,19.25
2024-01-15T04:00:24.425Z,21.85
2024-01-15T04:02:51.153Z,17.35
2024-01-15T04:05:17.948Z,20.95
2024-01-15T04:07:44.629Z,17.77
2024-01-15T04:10:11.439Z,14.43
2024-01-15T04:12:38.213Z,13.57
2024-01-15T04:15:05.342Z,17.17
2024-01-15T04:17:32.078Z,15.98
2024-01-15T04:19:58.895Z,15.98
2024-01-15T04:22:26.406Z,13.73
2024-01-15T04:24:53.125Z,15.00
2024-01-15T04:27:20.006Z,13.15
2024-01-15T04:29:46.879Z,13.93
2024-01-15T04:32:13.601Z,14.77
2024-01-15T04:34:40.653Z,15.85
2024-01-15T04:37:07.507Z,13.68
2024-01-15T04:39:34.278Z,18.55
2024-01-15T04:42:01.070Z,14.07
2024-01-15T04:44:27.948Z,16.90
2024-01-15T04:46:54.621Z,14.45
2024-01-15T04:49:21.568Z,14.18
2024-01-15T04:51:48.365Z,18.05
2024-01-15T04:54:18.880Z,13.40
2024-01-15T04:59:15.531Z,14.35
2024-01-15T05:01:42.928Z,12.02
2024-01-15T05:04:09.685Z,16.75
2024-01-15T05:06:36.505Z,16.10
2024-01-15T05:09:04.619Z,17.33
2024-01-15T05:11:50.198Z,13.10
2024-01-15T05:14:35.567Z,16.98
2024-01-15T05:17:02.308Z,13.38
2024-01-15T05:19:29.122Z,13.98
2024-01-15T05:21:56.165Z,12.65
2024-01-15T05:24:23.029Z,11.90
2024-01-15T05:27:08.301Z,13.20
2024-01-15T05:29:35.028Z,14.75
2024-01-15T05:32:02.690Z,14.43
2024-01-15T05:34:29.887Z,18.65
2024-01-15T05:36:56.656Z,15.07
2024-01-15T05:39:24.207Z,13.63
2024-01-15T05:41:51.167Z,16.20
2024-01-15T05:44:18.008Z,15.32
2024-01-15T05:46:44.661Z,18.20
2024-01-15T05:49:11.615Z,15.15
2024-01-15T05:51:38.668Z,14.90
2024-01-15T05:54:23.896Z,15.00
2024-01-15T05:56:50.902Z,12.00
2024-01-15T05:59:18.123Z,14.77
2024-01-15T06:01:44.893Z,10.65
2024-01-15T06:04:11.839Z,13.13
2024-01-15T06:06:38.697Z,18.10
2024-01-15T06:09:08.473Z,14.18
2024-01-15T06:11:35.748Z,12.05
2024-01-15T06:14:02.449Z,10.88
2024-01-15T06:16:29.981Z,11.70
2024-01-15T06:18:56.782Z,9.82
2024-01-15T06:21:23.814Z,10.25
2024-01-15T06:23:50.609Z,11.30
2024-01-15T06:26:17.379Z,8.32
2024-01-15T06:28:44.051Z,10.18
2024-01-15T06:31:11.344Z,12.35
2024-01-15T06:33:39.249Z,10.88
2024-01-15T06:36:06.924Z,13.85
2024-01-15T06:38:33.666Z,8.75
2024-01-15T06:41:00.742Z,9.57
2024-01-15T06:43:27.494Z,10.43
2024-01-15T06:45:54.327Z,9.30
2024-01-15T06:48:21.212Z,11.88
2024-01-15T06:50:48.054Z,8.18
2024-01-15T06:53:14.680Z,7.88
2024-01-15T06:55:41.433Z,8.98
2024-01-15T06:58:08.101Z,10.65
2024-01-15T07:00:34.959Z,10.18
2024-01-15T07:03:01.779Z,7.97
2024-01-15T07:05:28.723Z,9.68
2024-01-15T07:07:55.477Z,8.25
2024-01-15T07:10:22.251Z,11.23
2024-01-15T07:12:49.164Z,8.48
2024-01-15T07:15:17.029Z,10.02
2024-01-15T07:17:44.020Z,11.80
2024-01-15T07:20:11.414Z,8.32
2024-01-15T07:22:38.501Z,9.23
2024-01-15T07:25:06.171Z,11.55
2024-01-15T07:27:33.208Z,11.57
2024-01-15T07:30:02.554Z,11.93
2024-01-15T07:32:30.174Z,9.07
2024-01-15T07:34:57.055Z,13.85
2024-01-15T07:37:24.429Z,13.10
2024-01-15T07:39:51.168Z,14.00
2024-01-15T07:42:18.034Z,41.55
2024-01-15T07:44:44.668Z,14.20
2024-01-15T07:47:11.458Z,13.63
2024-01-15T07:49:39.605Z,15.85
2024-01-15T07:52:06.510Z,15.13
2024-01-15T07:54:33.590Z,18.35
2024-01-15T07:57:01.889Z,16.83
2024-01-15T07:59:28.577Z,14.95
2024-01-15T08:01:55.595Z,20.58
2024-01-15T08:04:25.416Z,12.82
2024-01-15T08:06:52.385Z,15.90
2024-01-15T08:09:19.143Z,13.68
2024-01-15T08:11:45.973Z,12.88
2024-01-15T08:14:13.044Z,9.73
2024-01-15T08:16:40.016Z,10.55
2024-01-15T08:19:06.941Z,14.98
2024-01-15T08:21:34.037Z,15.98
2024-01-15T08:24:01.934Z,22.73
2024-01-15T08:26:28.869Z,13.23
2024-01-15T08:28:55.981Z,10.07
2024-01-15T08:31:23.381Z,8.32
2024-01-15T08:33:50.140Z,17.20
2024-01-15T08:36:17.205Z,13.63
2024-01-15T08:38:43.950Z,12.60
2024-01-15T08:41:10.689Z,12.88
2024-01-15T08:43:37.339Z,12.27
2024-01-15T08:46:04.853Z,14.65
2024-01-15T08:48:31.714Z,14.48
2024-01-15T08:50:58.541Z,11.15
2024-01-15T08:53:25.346Z,10.30
2024-01-15T08:55:52.115Z,17.23
2024-01-15T08:58:19.111Z,13.38
2024-01-15T09:00:46.219Z,17.35
2024-01-15T09:03:13.193Z,16.10
2024-01-15T09:05:41.480Z,21.75
2024-01-15T09:08:08.178Z,17.25
2024-01-15T09:10:34.941Z,14.75
2024-01-15T09:13:01.726Z,20.15
2024-01-15T09:15:29.048Z,13.63
2024-01-15T09:17:55.945Z,15.27
2024-01-15T09:20:22.721Z,13.07
2024-01-15T09:22:49.914Z,13.77
2024-01-15T09:25:16.790Z,14.23
2024-01-15T09:27:43.546Z,17.88
2024-01-15T09:30:11.034Z,16.02
2024-01-15T09:32:38.020Z,21.10
2024-01-15T09:35:05.192Z,17.50
2024-01-15T09:37:41.846Z,16.92
2024-01-15T09:40:18.203Z,16.25
2024-01-15T09:42:47.153Z,18.77
2024-01-15T09:45:14.712Z,18.40
2024-01-15T09:48:00.040Z,18.52
2024-01-15T09:50:27.565Z,19.50
2024-01-15T09:52:55.369Z,14.43
2024-01-15T09:55:22.429Z,18.15
2024-01-15T09:57:49.642Z,12.95
2024-01-15T10:00:19.125Z,21.10
2024-01-15T10:02:45.923Z,14.65
2024-01-15T10:05:12.639Z,16.27
2024-01-15T10:07:40.825Z,16.98
2024-01-15T10:10:08.746Z,18.92
2024-01-15T10:12:36.038Z,14.43
2024-01-15T10:15:02.872Z,15.52
2024-01-15T10:17:29.790Z,17.13
2024-01-15T10:19:56.796Z,18.70
2024-01-15T10:22:24.354Z,16.65
2024-01-15T10:24:51.383Z,17.10
2024-01-15T10:27:18.244Z,12.18
2024-01-15T10:29:45.126Z,14.45
2024-01-15T10:32:12.773Z,16.40
2024-01-15T10:34:44.581Z,12.77
2024-01-15T10:37:11.612Z,12.65
2024-01-15T10:39:39.017Z,13.13
2024-01-15T10:42:07.501Z,13.35
2024-01-15T10:44:34.576Z,11.52
2024-01-15T10:47:01.842Z,13.20
2024-01-15T10:49:32.726Z,14.98
2024-01-15T10:52:02.013Z,13.48
2024-01-15T10:54:30.554Z,13.32
2024-01-15T10:56:58.089Z,13.48
2024-01-15T10:59:25.170Z,13.80
2024-01-15T11:01:56.206Z,12.15
2024-01-15T11:04:24.954Z,13.65
2024-01-15T11:06:57.933Z,15.93
2024-01-15T11:09:25.738Z,16.10
2024-01-15T11:12:07.884Z,15.23
2024-01-15T11:14:58.426Z,16.23
2024-01-15T11:17:25.264Z,12.98
2024-01-15T11:19:52.721Z,16.00
2024-01-15T11:22:49.635Z,13.75
2024-01-15T11:25:17.424Z,15.98
2024-01-15T11:27:46.088Z,14.73
2024-01-15T11:30:14.017Z,14.25
2024-01-15T11:32:44.707Z,14.02
2024-01-15T11:35:12.334Z,16.60
2024-01-15T11:37:51.635Z,15.45
2024-01-15T11:40:39.832Z,17.38
2024-01-15T11:43:08.050Z,14.07
2024-01-15T11:45:35.309Z,17.38
2024-01-15T11:48:13.116Z,14.98
2024-01-15T11:50:49.007Z,19.98
2024-01-15T11:53:19.490Z,16.02
2024-01-15T11:55:46.930Z,8.52
2024-01-15T11:58:13.866Z,17.05
2024-01-15T12:00:43.128Z,15.75
2024-01-15T12:03:10.760Z,16.00
2024-01-15T12:05:42.221Z,16.27
2024-01-15T12:08:12.612Z,19.25
2024-01-15T12:10:41.902Z,18.95
2024-01-15T12:13:12.013Z,16.95
2024-01-15T12:15:39.713Z,11.15
2024-01-15T12:18:06.816Z,15.13
2024-01-15T12:20:33.968Z,15.82
2024-01-15T12:23:03.508Z,8.77
2024-01-15T12:25:32.629Z,17.20
2024-01-15T12:28:00.279Z,19.30
2024-01-15T12:30:50.097Z,17.08
2024-01-15T12:33:18.907Z,15.38
2024-01-15T12:35:45.707Z,21.88
2024-01-15T12:38:12.943Z,19.13
2024-01-15T12:40:40.350Z,19.30
2024-01-15T12:43:08.379Z,18.70
2024-01-15T12:45:36.853Z,26.42
2024-01-15T12:48:04.890Z,21.83
2024-01-15T12:50:32.014Z,11.55
2024-01-15T12:53:00.747Z,18.17
2024-01-15T12:55:27.642Z,20.42
2024-01-15T12:57:56.184Z,21.13
2024-01-15T13:00:23.539Z,17.42
2024-01-15T13:02:51.086Z,20.52
2024-01-15T13:05:18.535Z,21.13
2024-01-15T13:07:45.534Z,21.63
2024-01-15T13:10:13.035Z,19.10
2024-01-15T13:12:42.514Z,23.92
2024-01-15T13:15:14.638Z,18.98
2024-01-15T13:17:43.224Z,23.40
2024-01-15T13:20:12.465Z,15.40
2024-01-15T13:22:40.972Z,22.95
2024-01-15T13:25:09.301Z,18.60
2024-01-15T13:27:36.883Z,20.08
2024-01-15T13:30:05.053Z,15.18
2024-01-15T13:32:31.909Z,20.30
2024-01-15T13:34:59.274Z,17.77
2024-01-15T13:37:26.221Z,19.20
2024-01-15T13:39:53.964Z,16.73
2024-01-15T13:42:23.696Z,29.17
2024-01-15T13:44:51.165Z,18.48
2024-01-15T13:47:17.921Z,17.48
2024-01-15T13:49:44.813Z,21.55
2024-01-15T13:52:11.584Z,24.55
2024-01-15T13:54:45.901Z,20.88
2024-01-15T13:57:21.091Z,8.63
2024-01-15T13:59:48.238Z,17.90
2024-01-15T14:02:18.161Z,18.20
2024-01-15T14:04:48.466Z,16.73
2024-01-15T14:07:15.334Z,17.23
2024-01-15T14:09:42.126Z,14.57
2024-01-15T14:12:08.877Z,20.20
2024-01-15T14:14:35.607Z,14.77
2024-01-15T14:17:02.281Z,12.13
2024-01-15T14:19:29.522Z,14.95
2024-01-15T14:21:56.793Z,19.30
2024-01-15T14:24:23.679Z,13.55
2024-01-15T14:26:50.391Z,13.57
2024-01-15T14:29:17.199Z,18.35
2024-01-15T14:31:43.912Z,15.90
2024-01-15T14:34:10.897Z,13.98
2024-01-15T14:36:38.326Z,10.15
2024-01-15T14:39:05.898Z,17.20
2024-01-15T14:41:32.698Z,10.80
2024-01-15T14:43:59.608Z,12.10
2024-01-15T14:46:28.197Z,11.10
2024-01-15T14:48:55.201Z,14.32
2024-01-15T14:51:21.993Z,10.93
2024-01-15T14:53:48.786Z,15.40
2024-01-15T14:56:17.519Z,15.23
2024-01-15T14:58:45.472Z,9.27
2024-01-15T15:01:12.452Z,12.63
2024-01-15T15:03:39.378Z,10.80
2024-01-15T15:06:08.579Z,13.30
2024-01-15T15:08:37.354Z,11.45
2024-01-15T15:11:05.094Z,11.27
2024-01-15T15:13:38.444Z,11.75
2024-01-15T15:16:11.919Z,11.20
2024-01-15T15:18:38.970Z,11.32
2024-01-15T15:21:06.071Z,10.15
2024-01-15T15:23:32.876Z,14.20
2024-01-15T15:25:59.950Z,11.63
2024-01-15T15:28:26.620Z,11.73
2024-01-15T15:30:53.473Z,11.65
2024-01-15T15:33:20.337Z,14.88
2024-01-15T15:35:47.163Z,14.38
2024-01-15T15:38:13.902Z,13.35
2024-01-15T15:40:40.789Z,11.63
2024-01-15T15:43:07.609Z,13.27
2024-01-15T15:45:34.474Z,15.65
2024-01-15T15:48:01.262Z,13.77
2024-01-15T15:50:28.866Z,14.13
2024-01-15T15:52:56.966Z,19.73
2024-01-15T15:55:24.794Z,13.52
2024-01-15T15:57:51.505Z,16.90
2024-01-15T16:00:18.648Z,12.57
2024-01-15T16:02:45.360Z,16.08
2024-01-15T16:05:12.339Z,15.90
2024-01-15T16:07:39.356Z,14.13
2024-01-15T16:10:06.633Z,9.70
2024-01-15T16:12:34.159Z,11.02
2024-01-15T16:15:02.209Z,12.90
2024-01-15T16:23:15.919Z,12.23
2024-01-15T16:23:29.870Z,11.88
2024-01-15T16:23:53.879Z,11.85
2024-01-15T16:25:51.947Z,17.05
2024-01-15T16:28:19.249Z,12.23
2024-01-15T16:30:47.977Z,8.57
2024-01-15T16:33:14.976Z,11.05
2024-01-15T16:35:41.883Z,12.50
2024-01-15T16:38:09.327Z,13.25
2024-01-15T16:40:37.774Z,8.77
2024-01-15T16:43:07.591Z,11.57
2024-01-15T16:45:34.261Z,11.98
2024-01-15T16:48:01.607Z,12.15
2024-01-15T16:50:28.670Z,8.75
2024-01-15T16:52:55.419Z,8.60
2024-01-15T16:55:22.608Z,14.13
2024-01-15T16:57:49.657Z,9.63
2024-01-15T17:00:16.958Z,9.90
2024-01-15T17:02:44.191Z,13.05
2024-01-15T17:05:11.175Z,11.55
2024-01-15T17:07:38.154Z,10.40
2024-01-15T17:10:05.906Z,11.65
2024-01-15T17:12:32.548Z,11.73
2024-01-15T17:14:59.296Z,13.05
2024-01-15T17:17:26.030Z,17.20
2024-01-15T17:19:52.810Z,10.88
2024-01-15T17:22:19.482Z,11.90
2024-01-15T17:24:46.279Z,11.80
2024-01-15T17:27:12.911Z,9.25
2024-01-15T17:29:39.665Z,9.07
2024-01-15T17:32:07.534Z,11.82
2024-01-15T17:34:34.472Z,7.75
2024-01-15T17:37:01.314Z,10.60
2024-01-15T17:39:28.162Z,10.88
2024-01-15T17:41:54.920Z,8.13
2024-01-15T17:44:21.806Z,7.47
2024-01-15T17:46:48.515Z,7.28
2024-01-15T17:49:15.346Z,9.60
2024-01-15T17:51:42.082Z,8.00
2024-01-15T17:54:10.237Z,8.35
2024-01-15T17:56:37.331Z,9.18
2024-01-15T17:59:04.320Z,10.93
2024-01-15T18:01:32.634Z,10.23
2024-01-15T18:04:04.272Z,7.63
2024-01-15T18:06:32.247Z,8.20
2024-01-15T18:08:59.109Z,9.32
2024-01-15T18:11:26.038Z,7.90
2024-01-15T18:13:52.926Z,6.82
2024-01-15T18:16:23.985Z,8.20
2024-01-15T18:18:54.031Z,10.85
2024-01-15T18:21:22.662Z,10.35
2024-01-15T18:23:49.807Z,9.02
2024-01-15T18:26:16.942Z,8.98
2024-01-15T18:28:43.761Z,10.23
2024-01-15T18:31:10.506Z,11.57
2024-01-15T18:33:37.475Z,10.70
2024-01-15T18:36:05.179Z,11.55
2024-01-15T18:38:32.058Z,9.73
2024-01-15T18:41:00.452Z,10.75
2024-01-15T18:43:31.028Z,7.90
2024-01-15T18:45:57.770Z,7.10
2024-01-15T18:48:24.595Z,9.90
2024-01-15T18:50:52.602Z,8.85
2024-01-15T18:53:19.347Z,12.48
2024-01-15T18:55:46.067Z,9.35
2024-01-15T18:58:12.851Z,8.70
2024-01-15T19:00:39.529Z,9.48
2024-01-15T19:03:06.929Z,11.35
2024-01-15T19:05:33.717Z,11.25
2024-01-15T19:08:00.718Z,12.23
2024-01-15T19:10:27.819Z,8.98
2024-01-15T19:12:54.531Z,9.18
2024-01-15T19:15:21.470Z,11.82
2024-01-15T19:17:50.031Z,8.43
2024-01-15T19:20:17.276Z,7.43
2024-01-15T19:22:44.064Z,12.00
2024-01-15T19:25:12.763Z,11.07
2024-01-15T19:27:44.381Z,8.57
2024-01-15T19:30:15.754Z,9.30
2024-01-15T19:32:42.701Z,12.50
2024-01-15T19:35:11.152Z,7.55
2024-01-15T19:37:38.960Z,11.02
2024-01-15T19:40:07.808Z,11.55
2024-01-15T19:42:34.581Z,11.07
2024-01-15T19:45:01.292Z,11.65
2024-01-15T19:47:29.330Z,11.38
2024-01-15T19:49:56.044Z,10.40
2024-01-15T19:52:22.806Z,9.88
2024-01-15T19:54:49.474Z,23.60
2024-01-15T19:57:16.543Z,14.57
2024-01-15T19:59:43.842Z,11.38
2024-01-15T20:02:10.690Z,12.38
2024-01-15T20:04:37.425Z,10.18
2024-01-15T20:07:04.462Z,8.95
2024-01-15T20:09:31.234Z,10.00
2024-01-15T20:11:58.031Z,9.50
2024-01-15T20:14:27.072Z,11.45
2024-01-15T20:16:53.973Z,11.45
2024-01-15T20:19:21.028Z,9.38
2024-01-15T20:21:47.829Z,11.48
2024-01-15T20:24:14.715Z,12.45
2024-01-15T20:26:41.933Z,13.45
2024-01-15T20:29:09.561Z,11.73
2024-01-15T20:31:36.449Z,9.73
2024-01-15T20:34:03.629Z,11.70
2024-01-15T20:36:30.387Z,9.82
2024-01-15T20:38:57.587Z,12.05
2024-01-15T20:41:25.876Z,10.82
2024-01-15T20:43:52.828Z,9.38
2024-01-15T20:46:19.560Z,17.23
2024-01-15T20:49:05.087Z,10.55
2024-01-15T20:51:31.957Z,11.02
2024-01-15T20:53:58.620Z,12.27
2024-01-15T20:56:25.470Z,13.18
2024-01-15T20:58:52.281Z,15.57
2024-01-15T21:01:19.224Z,12.25
2024-01-15T21:03:46.175Z,8.90
2024-01-15T21:06:13.347Z,10.88
2024-01-15T21:08:42.412Z,11.15
2024-01-15T21:11:09.270Z,13.25
2024-01-15T21:13:36.181Z,10.45
2024-01-15T21:16:03.146Z,14.80
2024-01-15T21:18:29.989Z,10.57
2024-01-15T21:20:56.766Z,18.40
2024-01-15T21:23:23.632Z,15.35
2024-01-15T21:25:50.833Z,9.63
2024-01-15T21:28:18.412Z,8.00
2024-01-15T21:30:45.308Z,12.60
2024-01-15T21:33:12.431Z,11.40
2024-01-15T21:35:40.949Z,9.90
2024-01-15T21:38:27.120Z,14.38
2024-01-15T21:40:53.971Z,10.05
2024-01-15T21:43:20.597Z,13.68
2024-01-15T21:45:47.388Z,9.93
2024-01-15T21:48:14.935Z,11.10
2024-01-15T21:50:42.656Z,10.77
2024-01-15T21:53:10.226Z,12.52
2024-01-15T21:55:36.944Z,13.65
2024-01-15T21:58:03.898Z,13.95
2024-01-15T22:00:30.639Z,10.70
2024-01-15T22:02:57.489Z,14.45
2024-01-15T22:05:24.248Z,13.18
2024-01-15T22:07:51.041Z,11.10
2024-01-15T22:10:17.763Z,12.20
2024-01-15T22:12:44.842Z,10.85
2024-01-15T22:15:13.996Z,17.02
2024-01-15T22:17:41.152Z,15.57
2024-01-15T22:20:08.831Z,11.95
2024-01-15T22:22:35.937Z,14.90
2024-01-15T22:25:03.080Z,12.45
2024-01-15T22:27:29.849Z,11.68
2024-01-15T22:29:58.059Z,12.13
2024-01-15T22:32:25.684Z,12.73
2024-01-15T22:34:53.271Z,13.65
2024-01-15T22:37:19.930Z,9.85
2024-01-15T22:39:46.694Z,12.80
2024-01-15T22:42:13.389Z,12.82
2024-01-15T22:44:40.310Z,13.90
2024-01-15T22:47:07.091Z,12.98
2024-01-15T22:49:33.945Z,12.52
2024-01-15T22:52:00.610Z,10.13
2024-01-15T22:54:27.313Z,11.55
2024-01-15T22:56:53.998Z,10.85
2024-01-15T22:59:23.243Z,13.40
2024-01-15T23:01:50.267Z,8.00
2024-01-15T23:04:17.164Z,11.05
2024-01-15T23:06:44.060Z,12.90
2024-01-15T23:09:10.714Z,11.75
2024-01-15T23:11:37.854Z,13.43
2024-01-15T23:14:05.222Z,12.18
2024-01-15T23:16:32.060Z,12.32
2024-01-15T23:18:58.947Z,11.43
2024-01-15T23:21:27.416Z,11.15
2024-01-15T23:23:54.465Z,9.60
2024-01-15T23:26:21.607Z,11.63
2024-01-15T23:28:50.854Z,11.45
2024-01-15T23:31:17.672Z,13.75
2024-01-15T23:33:44.516Z,9.57
2024-01-15T23:36:11.425Z,8.70
2024-01-15T23:38:39.530Z,10.80
2024-01-15T23:41:06.454Z,8.90
2024-01-15T23:43:33.498Z,12.70
2024-01-15T23:46:06.704Z,9.88
2024-01-15T23:48:41.570Z,12.38
2024-01-15T23:51:09.608Z,14.85
2024-01-15T23:53:36.466Z,12.75
2024-01-15T23:56:04.546Z,11.20
2024-01-15T23:58:31.528Z,12.10
